Time;durP1;ratioP1;P1;durP2;ratioP2;P2;SDS_P1;SDS_P2;PMS_P1;PMS_P2;Temp;Humidity;BMP_temperature;BMP_pressure;BME280_temperature;BME280_humidity;BME280_pressure;Samples;Min_cycle;Max_cycle;Signal;HPM_P1;HPM_P2
2021/04/17 12:59:06;;;;;;;3.95;2.42;;;;;;;;;;5145359;27;20305;-74
2021/04/17 13:01:32;;;;;;;4.00;2.15;;;;;;;;;;5146417;27;20031;-75
2021/04/17 13:03:58;;;;;;;4.07;2.05;;;;;;;;;;5151379;27;20043;-74
2021/04/17 13:06:26;;;;;;;3.65;2.28;;;;;;;;;;5139444;28;20027;-74
2021/04/17 13:08:52;;;;;;;4.13;2.40;;;;;;;;;;5141488;27;20028;-75
2021/04/17 13:11:19;;;;;;;5.05;2.75;;;;;;;;;;5137107;28;20961;-74
2021/04/17 13:13:45;;;;;;;2.83;1.90;;;;;;;;;;5129524;28;20042;-74
2021/04/17 13:16:11;;;;;;;5.68;2.30;;;;;;;;;;5125950;28;20024;-74
2021/04/17 13:18:37;;;;;;;5.15;2.85;;;;;;;;;;5125176;27;20514;-74
2021/04/17 13:21:04;;;;;;;5.15;2.13;;;;;;;;;;5123371;27;20040;-74
2021/04/17 13:23:30;;;;;;;5.57;2.03;;;;;;;;;;5125657;28;20019;-74
2021/04/17 13:25:57;;;;;;;4.82;2.15;;;;;;;;;;5125319;27;20024;-75
2021/04/17 13:28:23;;;;;;;5.43;2.30;;;;;;;;;;5125233;27;20024;-74
2021/04/17 13:30:49;;;;;;;5.60;2.10;;;;;;;;;;5107736;27;20023;-74
2021/04/17 13:33:15;;;;;;;2.90;1.90;;;;;;;;;;5128555;27;20059;-74
2021/04/17 13:35:41;;;;;;;6.00;2.10;;;;;;;;;;5144395;27;20066;-75
2021/04/17 13:38:07;;;;;;;6.55;2.65;;;;;;;;;;5135573;27;20030;-76
2021/04/17 13:40:34;;;;;;;6.47;2.38;;;;;;;;;;5123620;28;20019;-74
2021/04/17 13:43:00;;;;;;;4.15;2.47;;;;;;;;;;5125358;27;20011;-75
2021/04/17 13:45:26;;;;;;;5.75;2.20;;;;;;;;;;5123389;28;20024;-75
2021/04/17 13:47:52;;;;;;;4.90;2.55;;;;;;;;;;5122598;28;20568;-74
2021/04/17 13:50:18;;;;;;;5.65;1.90;;;;;;;;;;5125072;27;20527;-76
2021/04/17 13:52:44;;;;;;;20.83;3.17;;;;;;;;;;5123133;27;20031;-76
2021/04/17 13:55:10;;;;;;;4.68;2.03;;;;;;;;;;5125610;28;20616;-74
2021/04/17 13:57:37;;;;;;;5.60;1.90;;;;;;;;;;5122789;27;20031;-74
2021/04/17 14:00:07;;;;;;;4.10;1.70;;;;;;;;;;5109713;28;20111;-74
2021/04/17 14:02:34;;;;;;;3.53;1.83;;;;;;;;;;5123248;27;20019;-74
2021/04/17 14:05:00;;;;;;;2.72;1.65;;;;;;;;;;5125147;27;20023;-76
2021/04/17 14:07:26;;;;;;;3.03;1.92;;;;;;;;;;5124461;27;20102;-75
2021/04/17 14:09:52;;;;;;;3.47;2.22;;;;;;;;;;5112888;28;20124;-76
2021/04/17 14:12:18;;;;;;;4.70;2.10;;;;;;;;;;5108878;28;20030;-75
2021/04/17 14:14:44;;;;;;;6.75;2.72;;;;;;;;;;5110930;28;20107;-74
2021/04/17 14:17:13;;;;;;;5.68;2.25;;;;;;;;;;5111460;28;20681;-76
2021/04/17 14:19:39;;;;;;;4.88;2.20;;;;;;;;;;5108158;28;20034;-75
2021/04/17 14:22:05;;;;;;;5.40;2.10;;;;;;;;;;5110755;28;20120;-74
2021/04/17 14:24:31;;;;;;;3.88;2.10;;;;;;;;;;5110796;28;20030;-74
2021/04/17 14:26:57;;;;;;;4.07;2.00;;;;;;;;;;5110295;28;20016;-74
2021/04/17 14:29:23;;;;;;;4.15;1.80;;;;;;;;;;5109412;28;20028;-75
2021/04/17 14:31:51;;;;;;;4.75;2.22;;;;;;;;;;5109825;28;20096;-75
2021/04/17 14:34:17;;;;;;;5.55;2.28;;;;;;;;;;5099513;27;20039;-72
2021/04/17 14:36:43;;;;;;;6.57;2.45;;;;;;;;;;5115350;27;20115;-75
2021/04/17 14:39:09;;;;;;;5.75;2.25;;;;;;;;;;5108728;28;20024;-72
2021/04/17 14:41:35;;;;;;;4.43;1.77;;;;;;;;;;5109355;28;20020;-75
2021/04/17 14:44:10;;;;;;;4.10;1.90;;;;;;;;;;5110197;28;20699;-75
2021/04/17 14:46:37;;;;;;;9.18;1.73;;;;;;;;;;5109825;28;20023;-75
2021/04/17 14:49:03;;;;;;;4.18;1.75;;;;;;;;;;5109793;28;20023;-75
2021/04/17 14:51:29;;;;;;;3.25;1.77;;;;;;;;;;5107832;28;20035;-75
2021/04/17 14:53:55;;;;;;;4.78;2.15;;;;;;;;;;5109262;28;20031;-76
2021/04/17 14:56:22;;;;;;;6.47;3.55;;;;;;;;;;5109703;28;20495;-74
2021/04/17 14:58:50;;;;;;;5.70;2.13;;;;;;;;;;5109842;28;20059;-74
2021/04/17 15:01:16;;;;;;;4.93;1.88;;;;;;;;;;5108638;28;20065;-72
2021/04/17 15:03:42;;;;;;;4.72;1.75;;;;;;;;;;5108448;28;20027;-75
2021/04/17 15:06:09;;;;;;;3.33;1.80;;;;;;;;;;5105031;27;20102;-75
2021/04/17 15:08:35;;;;;;;3.90;1.83;;;;;;;;;;5112181;27;20525;-75
2021/04/17 15:11:03;;;;;;;5.20;1.92;;;;;;;;;;5088837;27;20041;-73
2021/04/17 15:13:32;;;;;;;4.13;1.77;;;;;;;;;;5088982;28;20028;-76
2021/04/17 15:15:59;;;;;;;3.67;1.55;;;;;;;;;;5088422;28;20032;-75
2021/04/17 15:18:29;;;;;;;4.35;1.90;;;;;;;;;;5087589;28;20116;-73
2021/04/17 15:20:56;;;;;;;3.72;1.80;;;;;;;;;;5104418;28;20027;-75
2021/04/17 15:23:22;;;;;;;4.80;2.03;;;;;;;;;;5108761;28;20003;-75
2021/04/17 15:25:49;;;;;;;3.97;1.58;;;;;;;;;;5108869;28;20030;-75
2021/04/17 15:28:23;;;;;;;8.70;2.38;;;18.60;51.80;;;;;;5090030;28;20020;-74
2021/04/17 15:30:49;;;;;;;3.50;1.60;;;15.90;49.90;;;;;;5106590;28;20099;-74
2021/04/17 15:33:16;;;;;;;4.68;1.70;;;15.30;52.90;;;;;;5106888;28;20511;-73
2021/04/17 15:35:46;;;;;;;7.55;2.17;;;15.30;53.20;;;;;;5108811;28;20107;-74
2021/04/17 15:38:12;;;;;;;4.93;2.47;;;15.40;51.50;;;;;;5108371;28;20063;-74
2021/04/17 15:40:39;;;;;;;6.38;2.05;;;15.40;53.20;;;;;;5107074;28;20047;-75
2021/04/17 15:43:07;;;;;;;3.92;1.88;;;16.00;53.70;;;;;;5109561;28;20092;-75
2021/04/17 15:45:35;;;;;;;6.68;1.80;;;15.10;53.40;;;;;;5092661;28;20116;-75
2021/04/17 15:48:02;;;;;;;3.13;1.80;;;15.20;54.60;;;;;;5116087;28;20031;-74
2021/04/17 15:50:29;;;;;;;5.65;1.70;;;15.00;53.00;;;;;;5116856;28;20031;-73
2021/04/17 15:52:59;;;;;;;6.10;1.90;;;14.90;55.60;;;;;;5115972;28;20133;-74
2021/04/17 15:55:26;;;;;;;5.10;1.88;;;14.90;55.90;;;;;;5115307;28;20613;-74
2021/04/17 16:16:49;;;;;;;7.10;1.80;;;;;;;;;;5108314;28;20039;-73
2021/04/17 16:19:15;;;;;;;5.18;1.90;;;;;;;;;;5106942;28;20012;-73
2021/04/17 16:21:41;;;;;;;5.07;2.10;;;;;;;;;;5086588;28;20024;-75
2021/04/17 16:24:08;;;;;;;4.03;1.70;;;;;;;;;;5104062;28;20049;-74
2021/04/17 16:26:37;;;;;;;4.50;2.05;;;;;;;;;;5106502;28;20391;-75
2021/04/17 16:29:04;;;;;;;5.88;2.03;;;;;;;;;;5106634;28;20184;-73
2021/04/17 16:31:30;;;;;;;9.85;2.60;;;;;;;;;;5122193;27;20027;-74
2021/04/17 16:33:56;;;;;;;10.40;2.20;;;;;;;;;;5126823;27;20037;-75
2021/04/17 16:36:22;;;;;;;4.05;1.83;;;;;;;;;;5128390;27;20034;-73
2021/04/17 16:38:48;;;;;;;5.82;2.55;;;;;;;;;;5089493;28;20032;-74
2021/04/17 16:41:15;;;;;;;4.53;1.70;;;;;;;;;;5086131;28;20020;-74
2021/04/17 16:43:41;;;;;;;5.32;1.90;;;;;;;;;;5117964;27;20497;-72
2021/04/17 16:46:08;;;;;;;4.57;1.90;;;;;;;;;;5106749;27;20369;-74
2021/04/17 16:48:34;;;;;;;5.82;2.47;;;;;;;;;;5087437;28;20081;-74
2021/04/17 16:51:01;;;;;;;7.63;1.88;;;;;;;;;;5087243;28;20032;-73
2021/04/17 16:53:27;;;;;;;10.50;2.75;;;;;;;;;;5076021;28;20028;-74
2021/04/17 16:55:53;;;;;;;6.55;2.30;;;;;;;;;;5088016;28;20103;-74
2021/04/17 16:58:19;;;;;;;7.00;2.30;;;;;;;;;;5087209;28;20107;-74
2021/04/17 17:00:45;;;;;;;6.30;2.00;;;;;;;;;;5086241;28;20024;-72
2021/04/17 17:03:11;;;;;;;5.70;1.80;;;;;;;;;;5087641;28;20028;-72
2021/04/17 17:05:37;;;;;;;4.72;1.90;;;;;;;;;;5087160;28;20046;-73
2021/04/17 17:08:03;;;;;;;5.70;2.00;;;;;;;;;;5087042;28;20058;-73
2021/04/17 17:10:30;;;;;;;5.47;2.03;;;;;;;;;;5085741;28;20036;-73
2021/04/17 17:12:56;;;;;;;6.65;2.25;;;;;;;;;;5088098;28;20024;-73
2021/04/17 17:15:22;;;;;;;7.60;2.03;;;;;;;;;;5086892;28;20020;-73
2021/04/17 17:17:49;;;;;;;5.32;1.75;;;;;;;;;;5087142;28;20673;-74
2021/04/17 17:20:16;;;;;;;3.65;1.95;;;;;;;;;;5068070;28;20111;-74
2021/04/17 17:22:45;;;;;;;3.53;1.77;;;;;;;;;;5090959;28;20527;-72
2021/04/17 17:25:13;;;;;;;4.25;1.92;;;;;;;;;;5107811;28;20488;-73
2021/04/17 17:27:40;;;;;;;4.90;2.03;;;;;;;;;;5105658;28;20028;-74
2021/04/17 17:30:07;;;;;;;3.53;1.85;;;;;;;;;;5102825;28;20028;-74
2021/04/17 17:32:33;;;;;;;3.63;1.80;;;;;;;;;;5086002;28;20035;-73
2021/04/17 17:35:01;;;;;;;6.10;3.17;;;;;;;;;;5086820;28;20423;-73
2021/04/17 17:37:28;;;;;;;5.80;3.00;;;;;;;;;;5085119;28;20055;-73
2021/04/17 17:39:54;;;;;;;3.75;2.30;;;;;;;;;;5086419;28;20032;-74
2021/04/17 17:42:20;;;;;;;9.73;2.70;;;;;;;;;;5086590;28;20028;-75
2021/04/17 17:44:46;;;;;;;5.55;2.50;;;;;;;;;;5091218;28;20082;-73
2021/04/17 17:47:13;;;;;;;5.85;2.28;;;;;;;;;;5108462;28;20034;-75
2021/04/17 17:49:39;;;;;;;5.28;2.20;;;;;;;;;;5106161;28;20034;-75
2021/04/17 17:52:06;;;;;;;4.43;1.95;;;;;;;;;;5098382;28;20565;-73
2021/04/17 17:54:32;;;;;;;4.70;2.38;;;;;;;;;;5111167;28;20031;-76
2021/04/17 17:56:58;;;;;;;7.35;2.65;;;;;;;;;;5110612;28;20042;-75
2021/04/17 17:59:26;;;;;;;4.75;2.33;;;;;;;;;;5111277;28;20107;-75
2021/04/17 18:01:52;;;;;;;8.35;2.40;;;;;;;;;;5110234;28;20034;-76
2021/04/17 18:04:18;;;;;;;6.40;2.15;;;;;;;;;;5110470;28;20110;-74
2021/04/17 18:06:46;;;;;;;5.18;2.00;;;;;;;;;;5096078;28;20032;-75
2021/04/17 18:09:14;;;;;;;5.65;2.30;;;;;;;;;;5089754;28;20024;-75
2021/04/17 18:11:44;;;;;;;4.03;2.20;;;;;;;;;;5089553;28;20119;-75
2021/04/17 18:14:10;;;;;;;9.10;2.70;;;;;;;;;;5092504;28;20085;-75
2021/04/17 18:16:36;;;;;;;7.78;3.03;;;;;;;;;;5089816;28;20051;-74
2021/04/17 18:19:02;;;;;;;3.78;2.40;;;;;;;;;;5089803;28;20067;-73
2021/04/17 18:21:28;;;;;;;7.75;2.75;;;;;;;;;;5088841;28;20039;-74
2021/04/17 18:23:54;;;;;;;4.35;2.28;;;;;;;;;;5101205;28;20047;-76
2021/04/17 18:26:21;;;;;;;6.95;2.53;;;;;;;;;;5109607;28;20122;-76
2021/04/17 18:28:48;;;;;;;5.68;2.30;;;;;;;;;;5110465;28;20020;-75
2021/04/17 18:31:17;;;;;;;5.53;2.53;;;;;;;;;;5107825;28;20506;-75
2021/04/17 18:33:43;;;;;;;3.28;2.28;;;;;;;;;;5110231;28;20395;-73
2021/04/17 18:36:10;;;;;;;7.05;2.33;;;;;;;;;;5123676;27;20073;-74
2021/04/17 18:38:36;;;;;;;5.05;2.92;;;;;;;;;;5128068;27;20028;-74
2021/04/17 18:41:02;;;;;;;8.77;2.88;;;;;;;;;;5101862;27;20087;-73
2021/04/17 18:43:28;;;;;;;5.25;2.25;;;;;;;;;;5109997;28;20036;-75
2021/04/17 18:45:54;;;;;;;5.88;2.90;;;;;;;;;;5109848;28;20023;-74
2021/04/17 18:48:20;;;;;;;6.82;2.20;;;;;;;;;;5096751;28;20035;-75
2021/04/17 18:50:46;;;;;;;6.07;2.20;;;;;;;;;;5087176;28;20020;-75
2021/04/17 18:53:12;;;;;;;5.95;2.45;;;;;;;;;;5096485;28;20038;-74
2021/04/17 18:55:38;;;;;;;6.05;2.33;;;;;;;;;;5107800;28;20031;-75
